Latest Weather Observations for Scotts Peak

IDT60801

Issued at 12:31 pm EST Friday 28 April 2017 (issued every 30 minutes, with the page automatically refreshed every 10 minutes)

About weather observations | Map of weather stations | Latest weather observations for TAS | Other Formats
Station Details ID: 097083 Name: SCOTTS PEAK DAM Lat: -43.04 Lon: 146.27 Height: 408.0 m
Data from the previous 72 hours. | See also: Recent months at Scotts Peak
Date/Time
EST
Temp
°C
App
Temp
°C
Dew
Point
°C
Rel
Hum
%
Delta-T
°C
Wind Press
QNH
hPa
Press
MSL
hPa
Rain since
9am
mm
Dir  Spd
km/h
Gust
km/h
Spd
kts
Gust
kts
28/12:30pm 12.0 5.5 10.2 89 0.9 NW 35 50 19 27 - - 0.0
28/12:00pm 11.1 3.9 10.6 97 0.3 NW 39 48 21 26 - - 0.0
28/11:30am 11.2 6.3 11.2 100 0.0 NW 28 43 15 23 - - 0.0
28/11:24am 11.1 4.0 10.9 99 0.1 NW 39 57 21 31 - - 0.0
28/11:00am 11.4 5.2 11.4 100 0.0 NNW 35 43 19 23 - - 0.0
28/10:30am 11.2 5.5 11.2 100 0.0 NNW 32 44 17 24 - - 0.0
28/10:00am 10.9 5.5 10.9 100 0.0 NNW 30 35 16 19 - - 0.0
28/09:30am 10.2 3.6 10.1 99 0.1 NNW 35 41 19 22 - - 0.0
28/09:00am 10.0 3.0 9.9 99 0.1 NW 37 46 20 25 - - 1.4
28/08:30am 9.6 3.3 9.6 100 0.0 NNW 33 41 18 22 - - 1.4
28/08:00am 9.4 5.1 9.4 100 0.0 NW 22 28 12 15 - - 1.4
28/07:30am 9.2 3.3 9.2 100 0.0 NW 30 37 16 20 - - 1.4
28/07:00am 9.2 5.2 9.2 100 0.0 NW 20 26 11 14 - - 1.4
28/06:30am 9.2 5.4 9.2 100 0.0 NNW 19 22 10 12 - - 1.4
28/06:00am 9.5 5.2 9.5 100 0.0 NNW 22 26 12 14 - - 1.4
28/05:30am 9.5 6.6 9.5 100 0.0 NW 15 20 8 11 - - 1.4
28/05:00am 9.5 6.6 9.5 100 0.0 NW 15 20 8 11 - - 1.4
28/04:30am 9.4 4.7 9.4 100 0.0 NW 24 30 13 16 - - 1.4
28/04:00am 9.4 4.7 9.4 100 0.0 WNW 24 35 13 19 - - 1.4
28/03:30am 9.4 2.6 9.4 100 0.0 NW 35 44 19 24 - - 1.4
28/03:00am 9.3 3.1 9.3 100 0.0 NW 32 44 17 24 - - 1.4
28/02:30am 9.6 4.6 9.6 100 0.0 WNW 26 30 14 16 - - 1.2
28/02:00am 9.7 4.7 9.7 100 0.0 WNW 26 30 14 16 - - 1.2
28/01:30am 9.7 4.7 9.6 99 0.1 WNW 26 33 14 18 - - 0.8
28/01:00am 9.8 4.5 9.7 99 0.1 WNW 28 35 15 19 - - 0.8
28/12:30am 10.0 4.4 10.0 100 0.0 WNW 30 35 16 19 - - 0.8
28/12:00am 10.0 4.0 10.0 100 0.0 WNW 32 39 17 21 - - 0.6
 
Date/Time
EST
Temp
°C
App
Temp
°C
Dew
Point
°C
Rel
Hum
%
Delta-T
°C
Wind Press
QNH
hPa
Press
MSL
hPa
Rain since
9am
mm
Dir  Spd
km/h
Gust
km/h
Spd
kts
Gust
kts
27/11:30pm 10.3 3.8 10.3 100 0.0 NW 35 44 19 24 - - 0.6
27/11:00pm 10.3 4.2 10.3 100 0.0 NW 33 43 18 23 - - 0.6
27/10:30pm 10.2 3.6 10.1 99 0.1 NW 35 44 19 24 - - 0.4
27/10:00pm 10.3 3.7 10.1 99 0.1 WNW 35 46 19 25 - - 0.4
27/09:30pm 10.1 1.8 10.0 99 0.1 NW 44 59 24 32 - - 0.4
27/09:05pm 10.1 1.0 10.0 99 0.1 WNW 48 74 26 40 - - 0.4
27/09:00pm 10.1 2.4 10.0 99 0.1 WNW 41 57 22 31 - - 0.4
27/08:30pm 9.9 2.9 9.9 100 0.0 NW 37 56 20 30 - - 0.4
27/08:23pm 9.7 3.4 9.6 99 0.1 NW 33 52 18 28 - - 0.4
27/08:00pm 9.7 1.5 9.6 99 0.1 NW 43 56 23 30 - - 0.4
27/07:46pm 9.5 4.1 9.5 100 0.0 NW 28 46 15 25 - - 0.4
27/07:30pm 9.2 4.5 9.2 100 0.0 NW 24 33 13 18 - - 0.4
27/07:00pm 9.0 5.0 9.0 100 0.0 NW 20 26 11 14 - - 0.0
27/06:30pm 8.9 3.3 8.8 99 0.0 NNW 28 35 15 19 - - 0.0
27/06:00pm 8.7 3.8 8.6 99 0.0 NW 24 37 13 20 - - 0.0
27/05:30pm 8.5 4.3 8.4 99 0.0 NW 20 30 11 16 - - 0.0
27/05:00pm 8.6 3.3 8.5 99 0.0 NW 26 32 14 17 - - 0.0
27/04:37pm 8.4 1.9 8.3 99 0.0 NW 32 50 17 27 - - 0.0
27/04:30pm 8.6 1.6 8.5 99 0.0 NW 35 50 19 27 - - 0.0
27/04:29pm 8.5 1.5 8.4 99 0.0 NW 35 50 19 27 - - 0.0
27/04:00pm 8.5 3.5 8.1 97 0.2 NNW 24 32 13 17 - - 0.0
27/03:30pm 8.9 3.1 8.1 95 0.4 NW 28 32 15 17 - - 0.0
27/03:00pm 9.3 3.4 7.4 88 0.9 NW 28 39 15 21 - - 0.0
27/02:30pm 9.4 3.4 7.0 85 1.2 NW 28 35 15 19 - - 0.0
27/02:00pm 10.2 2.9 7.1 81 1.5 NW 35 39 19 21 - - 0.0
27/01:30pm 9.2 3.1 6.6 84 1.2 NW 28 35 15 19 - - 0.0
27/01:00pm 8.3 2.5 6.1 86 1.0 NW 26 32 14 17 - - 0.0
27/12:30pm 7.5 0.3 4.8 83 1.2 WNW 32 39 17 21 - - 0.0
27/12:00pm 8.0 0.2 4.9 81 1.4 NW 35 44 19 24 - - 0.0
27/11:30am 8.1 1.0 5.4 83 1.2 NW 32 39 17 21 - - 0.0
27/11:00am 7.9 1.1 5.0 82 1.3 NW 30 39 16 21 - - 0.0
27/10:30am 6.6 0.0 4.4 86 1.0 WNW 28 35 15 19 - - 0.0
27/10:00am 6.8 1.5 5.1 89 0.8 NW 22 32 12 17 - - 0.0
27/09:30am 6.3 1.8 4.3 87 0.9 WNW 17 24 9 13 - - 0.0
27/09:00am 6.5 2.6 5.5 93 0.5 NW 15 20 8 11 - - 4.2
27/08:30am 5.4 0.5 5.3 99 0.0 NW 20 24 11 13 - - 4.2
27/08:00am 3.8 -1.8 3.7 99 0.0 NW 22 26 12 14 - - 4.2
27/07:30am 3.3 -3.1 3.2 99 0.0 NW 26 32 14 17 - - 4.2
27/07:00am 3.1 -2.2 3.0 99 0.0 WNW 20 26 11 14 - - 4.2
27/06:30am 2.9 -2.2 2.8 99 0.0 WNW 19 22 10 12 - - 4.0
27/06:00am 3.2 -1.6 2.8 97 0.2 NW 17 20 9 11 - - 4.0
27/05:30am 3.4 -1.4 2.4 93 0.4 W 17 20 9 11 - - 4.0
27/05:00am 2.8 -0.6 1.8 93 0.4 W 9 11 5 6 - - 4.0
27/04:30am 2.8 -0.2 1.8 93 0.4 WSW 7 9 4 5 - - 4.0
27/04:00am 2.8 -1.0 1.6 92 0.5 WSW 11 13 6 7 - - 4.0
27/03:30am 3.1 0.1 1.9 92 0.5 W 7 13 4 7 - - 4.0
27/03:00am 3.0 -0.3 2.7 98 0.1 WNW 9 11 5 6 - - 4.0
27/02:30am 2.5 -0.5 1.9 96 0.2 WNW 7 9 4 5 - - 4.0
27/02:00am 2.3 0.2 1.6 95 0.3 W 2 6 1 3 - - 4.0
27/01:30am 3.2 -0.6 1.7 90 0.6 WSW 11 13 6 7 - - 4.0
27/01:00am 2.7 -1.5 1.5 92 0.5 W 13 19 7 10 - - 4.0
27/12:30am 3.2 -1.7 1.7 90 0.6 W 17 20 9 11 - - 4.0
27/12:00am 2.9 0.1 2.0 94 0.4 SSW 6 9 3 5 - - 4.0
 
Date/Time
EST
Temp
°C
App
Temp
°C
Dew
Point
°C
Rel
Hum
%
Delta-T
°C
Wind Press
QNH
hPa
Press
MSL
hPa
Rain since
9am
mm
Dir  Spd
km/h
Gust
km/h
Spd
kts
Gust
kts
26/11:30pm 3.3 0.3 2.3 93 0.4 W 7 13 4 7 - - 4.0
26/11:00pm 3.0 0.0 2.1 94 0.4 W 7 9 4 5 - - 4.0
26/10:30pm 2.6 -0.2 2.2 97 0.2 SW 6 11 3 6 - - 4.0
26/10:00pm 2.9 -0.8 2.2 95 0.3 W 11 13 6 7 - - 4.0
26/09:30pm 3.2 -0.1 2.6 96 0.2 W 9 15 5 8 - - 4.0
26/09:00pm 2.8 0.1 2.4 97 0.2 W 6 9 3 5 - - 4.0
26/08:30pm 2.7 0.2 1.8 94 0.4 W 4 9 2 5 - - 3.8
26/08:00pm 3.6 0.8 3.0 96 0.2 SW 7 11 4 6 - - 3.8
26/07:30pm 3.5 -0.4 3.2 98 0.1 WSW 13 17 7 9 - - 3.8
26/07:00pm 3.4 0.2 3.1 98 0.1 W 9 17 5 9 - - 3.8
26/06:30pm 3.7 0.9 3.4 98 0.1 WSW 7 19 4 10 - - 3.8
26/06:00pm 3.9 -1.1 3.5 97 0.2 SW 19 26 10 14 - - 2.8
26/05:30pm 3.7 0.1 3.1 96 0.3 W 11 15 6 8 - - 2.6
26/05:00pm 4.6 2.1 3.7 94 0.4 SW 6 11 3 6 - - 2.2
26/04:30pm 4.4 0.1 3.2 92 0.5 S 15 24 8 13 - - 2.2
26/04:00pm 4.3 -3.3 3.1 92 0.5 WSW 32 39 17 21 - - 1.6
26/03:30pm 6.3 -1.3 0.4 66 2.4 S 30 43 16 23 - - 1.0
26/03:00pm 6.6 -0.1 1.5 70 2.1 S 26 35 14 19 - - 1.0
26/02:30pm 6.8 0.9 1.7 70 2.1 S 22 33 12 18 - - 1.0
26/02:00pm 6.6 1.2 2.7 76 1.7 S 20 33 11 18 - - 1.0
26/01:36pm 5.1 -1.8 2.5 83 1.1 S 28 46 15 25 - - 1.0
26/01:30pm 7.3 2.6 3.2 75 1.8 SSW 17 39 9 21 - - 0.8
26/01:00pm 5.8 1.0 2.6 80 1.3 S 17 37 9 20 - - 0.8
26/12:30pm 5.9 -1.4 2.2 77 1.5 S 30 44 16 24 - - 0.8
26/12:00pm 5.6 0.2 2.4 80 1.3 SW 20 32 11 17 - - 0.8
26/11:47am 4.4 -2.7 1.4 81 1.2 S 28 46 15 25 - - 0.6
26/11:30am 6.6 2.1 4.1 84 1.1 SW 17 24 9 13 - - 0.6
26/11:00am 6.8 0.6 2.3 73 1.9 W 24 33 13 18 - - 0.2
26/10:30am 5.9 1.8 2.4 78 1.5 W 13 20 7 11 - - 0.2
26/10:00am 4.9 -0.3 2.3 83 1.1 SW 19 26 10 14 - - 0.2
26/09:43am 4.6 -1.6 2.0 83 1.1 SW 24 46 13 25 - - 0.2
26/09:41am 4.8 -1.5 1.7 80 1.3 SW 24 46 13 25 - - 0.0
26/09:30am 5.9 1.5 2.7 80 1.4 WSW 15 28 8 15 - - 0.0
26/09:00am 5.2 2.0 3.1 86 0.9 SW 9 19 5 10 - - 15.2
26/08:30am 4.7 1.2 3.5 92 0.5 W 11 19 6 10 - - 15.2
26/08:00am 3.5 -1.7 2.3 92 0.5 SW 19 32 10 17 - - 15.2
26/07:35am 3.5 -3.5 1.9 89 0.6 WSW 28 48 15 26 - - 14.8
26/07:30am 4.2 -1.4 1.4 82 1.1 WSW 20 35 11 19 - - 14.4
26/07:00am 4.6 -1.0 1.5 80 1.3 WSW 20 43 11 23 - - 14.2
26/06:30am 4.5 -0.3 2.4 86 0.9 WSW 17 32 9 17 - - 14.2
26/06:00am 4.9 -0.1 3.4 90 0.6 SW 19 35 10 19 - - 14.2
26/05:30am 4.7 -0.4 4.1 96 0.3 WSW 20 32 11 17 - - 14.2
26/05:00am 4.8 -0.6 4.5 98 0.1 WSW 22 30 12 16 - - 14.0
26/04:30am 4.8 -1.0 4.4 97 0.2 SSW 24 35 13 19 - - 13.4
26/04:00am 4.8 -1.4 4.1 95 0.3 SW 26 41 14 22 - - 12.6
26/03:30am 5.3 0.2 4.3 93 0.4 SSW 20 33 11 18 - - 10.8
26/03:01am 5.7 -0.7 5.4 98 0.1 SW 28 48 15 26 - - 10.0
26/03:00am 5.7 -0.3 5.4 98 0.1 SW 26 48 14 26 - - 10.0
26/02:30am 6.1 1.9 5.8 98 0.1 WSW 17 24 9 13 - - 8.2
26/02:00am 6.1 1.4 6.0 99 0.0 SW 20 33 11 18 - - 8.2
26/01:30am 6.2 1.1 6.1 99 0.0 WSW 22 32 12 17 - - 7.4
26/01:00am 6.4 1.7 6.1 98 0.1 WSW 20 35 11 19 - - 6.6
26/12:30am 6.3 -0.8 6.2 99 0.0 SW 33 43 18 23 - - 6.2
26/12:00am 6.5 -1.4 6.4 99 0.0 WSW 37 48 20 26 - - 5.8
 
Date/Time
EST
Temp
°C
App
Temp
°C
Dew
Point
°C
Rel
Hum
%
Delta-T
°C
Wind Press
QNH
hPa
Press
MSL
hPa
Rain since
9am
mm
Dir  Spd
km/h
Gust
km/h
Spd
kts
Gust
kts
25/11:30pm 6.8 -1.4 6.7 99 0.0 WSW 39 61 21 33 - - 4.8
25/11:18pm 7.3 0.9 7.0 98 0.1 WSW 30 50 16 27 - - 4.6
25/11:00pm 7.9 2.4 7.6 98 0.1 W 26 35 14 19 - - 3.8
25/10:30pm 8.2 2.7 7.6 96 0.3 WNW 26 35 14 19 - - 2.6
25/10:00pm 8.6 5.0 8.5 99 0.0 WNW 17 30 9 16 - - 2.2
25/09:30pm 8.7 5.1 8.4 98 0.1 NNW 17 26 9 14 - - 1.4
25/09:00pm 8.4 5.8 7.8 96 0.3 NW 11 17 6 9 - - 1.4
25/08:30pm 8.8 4.0 7.4 91 0.7 WNW 22 28 12 15 - - 1.0
25/08:00pm 8.6 3.3 8.5 99 0.0 NW 26 33 14 18 - - 1.0
25/07:30pm 8.3 4.2 7.9 97 0.2 WNW 19 22 10 12 - - 1.0
25/07:00pm 8.9 3.0 7.5 91 0.7 WNW 28 43 15 23 - - 0.8
25/06:30pm 9.1 1.7 8.2 94 0.4 WNW 37 48 20 26 - - 0.4
25/06:00pm 9.7 3.8 7.5 86 1.1 WNW 28 46 15 25 - - 0.0
25/05:30pm 10.0 3.1 7.4 84 1.3 NNW 33 41 18 22 - - 0.0
25/05:00pm 10.8 5.3 7.7 81 1.5 NW 26 35 14 19 - - 0.0
25/04:30pm 10.9 5.0 7.6 80 1.6 NW 28 37 15 20 - - 0.0
25/04:00pm 11.2 3.9 7.3 77 1.9 WNW 35 44 19 24 - - 0.0
25/03:30pm 13.2 6.5 8.1 71 2.6 NW 33 44 18 24 - - 0.0
25/03:00pm 12.2 7.8 7.5 73 2.3 WNW 20 28 11 15 - - 0.0
25/02:30pm 13.7 8.6 10.7 82 1.6 WNW 28 37 15 20 - - 0.0
25/02:00pm 12.1 5.3 7.0 71 2.5 WNW 32 41 17 22 - - 0.0
25/01:30pm 12.0 3.8 8.1 77 2.0 WNW 41 54 22 29 - - 0.0
25/01:00pm 11.4 4.7 7.3 76 2.0 WNW 32 41 17 22 - - 0.0

Other Formats:

Comma delimited format used in spreadsheet applications
http://www.bom.gov.au/fwo/IDT60801/IDT60801.95958.axf

JavaScript Object Notation format (JSON) in row-major order
http://www.bom.gov.au/fwo/IDT60801/IDT60801.95958.json